TimeCDT,TemperatureF,Dew PointF,Humidity,Sea Level PressureIn,VisibilityMPH,Wind Direction,Wind SpeedMPH,Gust SpeedMPH,PrecipitationIn,Events,Conditions,WindDirDegrees,DateUTC
12:15 AM,69.8,64.4,83,30.04,10.0,SSE,8.1,-,N/A,,Clear,150,2013-08-18 05:15:00
12:34 AM,69.8,64.4,83,30.04,10.0,SSE,11.5,-,N/A,,Clear,150,2013-08-18 05:34:00
12:55 AM,68.0,62.6,83,30.04,10.0,SSE,10.4,-,N/A,,Clear,150,2013-08-18 05:55:00
1:17 AM,68.0,62.6,83,30.05,10.0,SSE,9.2,16.1,N/A,,Clear,150,2013-08-18 06:17:00
1:37 AM,68.0,62.6,83,30.05,10.0,SSE,8.1,-,N/A,,Clear,160,2013-08-18 06:37:00
1:54 AM,68.0,62.6,83,30.06,10.0,SSE,6.9,-,N/A,,Clear,160,2013-08-18 06:54:00
2:14 AM,66.2,62.6,88,30.06,10.0,SSE,8.1,-,N/A,,Clear,160,2013-08-18 07:14:00
2:36 AM,66.2,62.6,88,30.06,10.0,SSE,5.8,-,N/A,,Clear,160,2013-08-18 07:36:00
2:56 AM,66.2,62.6,88,30.06,10.0,SSE,5.8,-,N/A,,Clear,160,2013-08-18 07:56:00
3:18 AM,66.2,62.6,88,30.06,10.0,SSE,8.1,-,N/A,,Clear,150,2013-08-18 08:18:00
3:46 AM,66.2,62.6,88,30.05,10.0,SSE,9.2,-,N/A,,Clear,150,2013-08-18 08:46:00
3:56 AM,64.4,60.8,88,30.05,10.0,SSE,9.2,-,N/A,,Clear,160,2013-08-18 08:56:00
4:17 AM,64.4,60.8,88,30.04,10.0,SSE,10.4,-,N/A,,Clear,160,2013-08-18 09:17:00
4:40 AM,64.4,60.8,88,30.04,10.0,SSE,9.2,-,N/A,,Clear,160,2013-08-18 09:40:00
4:54 AM,64.4,60.8,88,30.04,10.0,SSE,8.1,-,N/A,,Clear,150,2013-08-18 09:54:00
5:14 AM,64.4,60.8,88,30.03,10.0,SSE,5.8,-,N/A,,Clear,160,2013-08-18 10:14:00
5:37 AM,64.4,60.8,88,30.03,10.0,SSE,8.1,-,N/A,,Clear,160,2013-08-18 10:37:00
5:54 AM,64.4,60.8,88,30.03,10.0,South,4.6,-,N/A,,Clear,170,2013-08-18 10:54:00
6:18 AM,64.4,60.8,88,30.02,10.0,SSE,8.1,-,N/A,,Clear,150,2013-08-18 11:18:00
6:36 AM,64.4,60.8,88,30.02,10.0,SSE,6.9,-,N/A,,Clear,160,2013-08-18 11:36:00
6:57 AM,64.4,60.8,88,30.03,10.0,SSE,9.2,-,N/A,,Clear,160,2013-08-18 11:57:00
7:15 AM,64.4,60.8,88,30.03,10.0,SSE,5.8,-,N/A,,Clear,160,2013-08-18 12:15:00
7:36 AM,64.4,60.8,88,30.03,10.0,SSE,4.6,-,N/A,,Clear,160,2013-08-18 12:36:00
7:55 AM,66.2,60.8,83,30.03,10.0,SSE,6.9,-,N/A,,Clear,150,2013-08-18 12:55:00
8:21 AM,66.2,62.6,88,30.03,10.0,South,5.8,-,N/A,,Clear,170,2013-08-18 13:21:00
8:36 AM,68.0,62.6,83,30.03,10.0,SSE,8.1,-,N/A,,Clear,160,2013-08-18 13:36:00
8:57 AM,69.8,62.6,78,30.02,10.0,SSE,10.4,16.1,N/A,,Clear,160,2013-08-18 13:57:00
9:16 AM,71.6,62.6,73,30.02,10.0,South,11.5,16.1,N/A,,Clear,170,2013-08-18 14:16:00
9:35 AM,71.6,62.6,73,30.01,10.0,SSE,11.5,20.7,N/A,,Clear,160,2013-08-18 14:35:00
9:54 AM,73.4,64.4,73,30.01,10.0,SSE,11.5,18.4,N/A,,Clear,160,2013-08-18 14:54:00
10:14 AM,75.2,64.4,69,30.00,10.0,South,15.0,20.7,N/A,,Clear,170,2013-08-18 15:14:00
10:34 AM,75.2,64.4,69,30.00,10.0,South,13.8,21.9,N/A,,Clear,170,2013-08-18 15:34:00
10:54 AM,77.0,64.4,65,30.00,10.0,South,13.8,21.9,N/A,,Clear,170,2013-08-18 15:54:00
11:15 AM,78.8,66.2,65,30.00,10.0,South,12.7,20.7,N/A,,Clear,170,2013-08-18 16:15:00
11:35 AM,77.0,64.4,65,29.99,10.0,SSE,12.7,19.6,N/A,,Clear,160,2013-08-18 16:35:00
11:55 AM,78.8,66.2,65,29.99,10.0,South,15.0,23.0,N/A,,Clear,170,2013-08-18 16:55:00
12:14 PM,80.6,66.2,61,29.98,10.0,South,13.8,19.6,N/A,,Clear,180,2013-08-18 17:14:00
12:35 PM,80.6,66.2,61,29.98,10.0,South,16.1,21.9,N/A,,Clear,180,2013-08-18 17:35:00
12:54 PM,80.6,66.2,61,29.98,10.0,South,12.7,23.0,N/A,,Clear,170,2013-08-18 17:54:00
1:14 PM,80.6,68.0,65,29.98,10.0,South,12.7,17.3,N/A,,Clear,170,2013-08-18 18:14:00
1:34 PM,80.6,68.0,65,29.98,10.0,South,12.7,21.9,N/A,,Clear,180,2013-08-18 18:34:00
1:55 PM,82.4,68.0,62,29.98,10.0,SSE,13.8,20.7,N/A,,Clear,160,2013-08-18 18:55:00
2:14 PM,82.4,69.8,66,29.97,10.0,SSE,13.8,20.7,N/A,,Clear,160,2013-08-18 19:14:00
2:34 PM,82.4,69.8,66,29.97,10.0,South,15.0,21.9,N/A,,Clear,170,2013-08-18 19:34:00
2:55 PM,84.2,69.8,62,29.97,10.0,South,13.8,19.6,N/A,,Clear,170,2013-08-18 19:55:00
3:14 PM,84.2,69.8,62,29.97,10.0,South,11.5,23.0,N/A,,Clear,170,2013-08-18 20:14:00
3:34 PM,84.2,69.8,62,29.98,10.0,South,10.4,19.6,N/A,,Clear,170,2013-08-18 20:34:00
3:55 PM,84.2,69.8,62,29.97,10.0,South,13.8,18.4,N/A,,Clear,170,2013-08-18 20:55:00
4:14 PM,84.2,69.8,62,29.97,10.0,SSE,12.7,18.4,N/A,,Clear,160,2013-08-18 21:14:00
4:35 PM,84.2,69.8,62,29.96,10.0,South,12.7,20.7,N/A,,Clear,180,2013-08-18 21:35:00
4:54 PM,84.2,69.8,62,29.96,10.0,South,11.5,16.1,N/A,,Scattered Clouds,170,2013-08-18 21:54:00
5:14 PM,82.4,69.8,66,29.96,10.0,South,13.8,19.6,N/A,,Scattered Clouds,180,2013-08-18 22:14:00
5:34 PM,84.2,69.8,62,29.96,10.0,South,10.4,17.3,N/A,,Clear,170,2013-08-18 22:34:00
5:55 PM,82.4,69.8,66,29.95,10.0,South,11.5,16.1,N/A,,Clear,170,2013-08-18 22:55:00
6:14 PM,82.4,69.8,66,29.94,10.0,South,11.5,18.4,N/A,,Clear,170,2013-08-18 23:14:00
6:34 PM,80.6,69.8,70,29.93,10.0,South,12.7,-,N/A,,Clear,170,2013-08-18 23:34:00
6:54 PM,80.6,69.8,70,29.93,10.0,South,10.4,-,N/A,,Clear,180,2013-08-18 23:54:00
7:14 PM,80.6,69.8,70,29.93,10.0,South,9.2,-,N/A,,Clear,180,2013-08-19 00:14:00
7:34 PM,78.8,69.8,74,29.92,10.0,South,9.2,-,N/A,,Clear,170,2013-08-19 00:34:00
7:55 PM,78.8,69.8,74,29.92,10.0,South,8.1,-,N/A,,Clear,170,2013-08-19 00:55:00
8:14 PM,78.8,69.8,74,29.92,10.0,SSE,6.9,-,N/A,,Clear,160,2013-08-19 01:14:00
8:35 PM,78.8,68.0,69,29.93,10.0,South,6.9,-,N/A,,Clear,170,2013-08-19 01:35:00
8:54 PM,77.0,68.0,74,29.92,10.0,SSE,9.2,-,N/A,,Clear,160,2013-08-19 01:54:00
9:14 PM,75.2,69.8,83,29.94,10.0,South,8.1,-,N/A,,Clear,180,2013-08-19 02:14:00
9:34 PM,75.2,69.8,83,29.94,10.0,SSE,6.9,-,N/A,,Clear,160,2013-08-19 02:34:00
9:54 PM,75.2,69.8,83,29.94,10.0,SSE,5.8,-,N/A,,Clear,160,2013-08-19 02:54:00
10:14 PM,75.2,68.0,78,29.95,10.0,SSE,6.9,-,N/A,,Clear,160,2013-08-19 03:14:00
10:34 PM,75.2,68.0,78,29.95,10.0,SSE,5.8,-,N/A,,Clear,160,2013-08-19 03:34:00
10:55 PM,73.4,68.0,83,29.95,10.0,South,5.8,-,N/A,,Clear,170,2013-08-19 03:55:00
11:14 PM,73.4,68.0,83,29.96,10.0,SSE,4.6,-,N/A,,Scattered Clouds,160,2013-08-19 04:14:00
11:34 PM,73.4,68.0,83,29.96,10.0,SSE,4.6,-,N/A,,Mostly Cloudy,150,2013-08-19 04:34:00
11:54 PM,73.4,68.0,83,29.96,10.0,SE,5.8,-,N/A,,Scattered Clouds,140,2013-08-19 04:54:00